Terminal Aerodrome Forecast
Issued by NWS Wilmington, OH

Current Version | Previous Version | Graphics & Text | Print | Product List | Glossary On
Versions: 1 2 3 4 5 6 7 8 9 10 11 12 13 14 15 16 17 18
376
FTUS41 KILN 200537
TAFILN
TAF
KILN 200537Z 2006/2106 VRB03KT P6SM BKN250
      TEMPO 2008/2012 4SM BR
     FM201600 24008KT P6SM SCT040 BKN250
     FM210000 24005KT P6SM SCT150=

USA.gov is the U.S. government's official web portal to all federal, state and local government web resources and services.